sensor_id;sensor_type;location;lat;lon;timestamp;temperature;humidity
15749;DHT22;7976;52.526;13.326;2023-05-07T00:01:25;9.50;99.90
15749;DHT22;7976;52.526;13.326;2023-05-07T00:03:52;9.50;99.90
15749;DHT22;7976;52.526;13.326;2023-05-07T00:06:19;9.50;99.90
15749;DHT22;7976;52.526;13.326;2023-05-07T00:08:45;9.50;99.90
15749;DHT22;7976;52.526;13.326;2023-05-07T00:11:12;9.50;99.90
15749;DHT22;7976;52.526;13.326;2023-05-07T00:13:40;9.50;99.90
15749;DHT22;7976;52.526;13.326;2023-05-07T00:16:07;9.60;99.90
15749;DHT22;7976;52.526;13.326;2023-05-07T00:18:34;9.60;99.90
15749;DHT22;7976;52.526;13.326;2023-05-07T00:21:01;9.60;99.90
15749;DHT22;7976;52.526;13.326;2023-05-07T00:23:27;9.60;99.90
15749;DHT22;7976;52.526;13.326;2023-05-07T00:25:54;9.60;99.90
15749;DHT22;7976;52.526;13.326;2023-05-07T00:28:22;9.60;99.90
15749;DHT22;7976;52.526;13.326;2023-05-07T00:30:50;9.60;99.90
15749;DHT22;7976;52.526;13.326;2023-05-07T00:33:17;9.60;99.90
15749;DHT22;7976;52.526;13.326;2023-05-07T00:35:45;9.60;99.90
15749;DHT22;7976;52.526;13.326;2023-05-07T00:38:12;9.60;99.90
15749;DHT22;7976;52.526;13.326;2023-05-07T00:40:39;9.60;99.90
15749;DHT22;7976;52.526;13.326;2023-05-07T00:43:06;9.60;99.90
15749;DHT22;7976;52.526;13.326;2023-05-07T00:45:33;9.60;99.90
15749;DHT22;7976;52.526;13.326;2023-05-07T00:48:02;9.60;99.90
15749;DHT22;7976;52.526;13.326;2023-05-07T00:50:31;9.60;99.90
15749;DHT22;7976;52.526;13.326;2023-05-07T00:52:59;9.70;99.90
15749;DHT22;7976;52.526;13.326;2023-05-07T00:55:27;9.60;99.90
15749;DHT22;7976;52.526;13.326;2023-05-07T00:57:54;9.60;99.90
15749;DHT22;7976;52.526;13.326;2023-05-07T01:00:21;9.60;99.90
15749;DHT22;7976;52.526;13.326;2023-05-07T01:02:47;9.60;99.90
15749;DHT22;7976;52.526;13.326;2023-05-07T01:05:17;9.60;99.90
15749;DHT22;7976;52.526;13.326;2023-05-07T01:07:47;9.60;99.90
15749;DHT22;7976;52.526;13.326;2023-05-07T01:10:16;9.50;99.90
15749;DHT22;7976;52.526;13.326;2023-05-07T01:12:45;9.60;99.90
15749;DHT22;7976;52.526;13.326;2023-05-07T01:15:15;9.60;99.90
15749;DHT22;7976;52.526;13.326;2023-05-07T01:17:43;9.60;99.90
15749;DHT22;7976;52.526;13.326;2023-05-07T01:20:21;9.60;99.90
15749;DHT22;7976;52.526;13.326;2023-05-07T01:22:53;9.60;99.90
15749;DHT22;7976;52.526;13.326;2023-05-07T01:25:21;9.50;99.90
15749;DHT22;7976;52.526;13.326;2023-05-07T01:27:51;9.50;99.90
15749;DHT22;7976;52.526;13.326;2023-05-07T01:30:22;9.50;99.90
15749;DHT22;7976;52.526;13.326;2023-05-07T01:32:52;9.50;99.90
15749;DHT22;7976;52.526;13.326;2023-05-07T01:35:30;9.50;99.90
15749;DHT22;7976;52.526;13.326;2023-05-07T01:38:03;9.50;99.90
15749;DHT22;7976;52.526;13.326;2023-05-07T01:40:31;9.50;99.90
15749;DHT22;7976;52.526;13.326;2023-05-07T01:43:00;9.50;99.90
15749;DHT22;7976;52.526;13.326;2023-05-07T01:45:27;9.50;99.90
15749;DHT22;7976;52.526;13.326;2023-05-07T01:47:58;9.50;99.90
15749;DHT22;7976;52.526;13.326;2023-05-07T01:50:25;9.50;99.90
15749;DHT22;7976;52.526;13.326;2023-05-07T01:52:53;9.50;99.90
15749;DHT22;7976;52.526;13.326;2023-05-07T01:55:21;9.50;99.90
15749;DHT22;7976;52.526;13.326;2023-05-07T01:57:49;9.50;99.90
15749;DHT22;7976;52.526;13.326;2023-05-07T02:00:16;9.50;99.90
15749;DHT22;7976;52.526;13.326;2023-05-07T02:02:44;9.50;99.90
15749;DHT22;7976;52.526;13.326;2023-05-07T02:05:23;9.50;99.90
15749;DHT22;7976;52.526;13.326;2023-05-07T02:08:04;9.50;99.90
15749;DHT22;7976;52.526;13.326;2023-05-07T02:10:33;9.40;99.90
15749;DHT22;7976;52.526;13.326;2023-05-07T02:13:01;9.40;99.90
15749;DHT22;7976;52.526;13.326;2023-05-07T02:15:28;9.40;99.90
15749;DHT22;7976;52.526;13.326;2023-05-07T02:18:00;9.40;99.90
15749;DHT22;7976;52.526;13.326;2023-05-07T02:20:29;9.40;99.90
15749;DHT22;7976;52.526;13.326;2023-05-07T02:22:56;9.40;99.90
15749;DHT22;7976;52.526;13.326;2023-05-07T02:25:25;9.40;99.90
15749;DHT22;7976;52.526;13.326;2023-05-07T02:27:53;9.40;99.90
15749;DHT22;7976;52.526;13.326;2023-05-07T02:30:24;9.40;99.90
15749;DHT22;7976;52.526;13.326;2023-05-07T02:32:53;9.40;99.90
15749;DHT22;7976;52.526;13.326;2023-05-07T02:35:20;9.40;99.90
15749;DHT22;7976;52.526;13.326;2023-05-07T02:37:47;9.40;99.90
15749;DHT22;7976;52.526;13.326;2023-05-07T02:40:14;9.40;99.90
15749;DHT22;7976;52.526;13.326;2023-05-07T02:42:41;9.40;99.90
15749;DHT22;7976;52.526;13.326;2023-05-07T02:45:10;9.40;99.90
15749;DHT22;7976;52.526;13.326;2023-05-07T02:47:38;9.40;99.90
15749;DHT22;7976;52.526;13.326;2023-05-07T02:50:06;9.40;99.90
15749;DHT22;7976;52.526;13.326;2023-05-07T02:52:33;9.40;99.90
15749;DHT22;7976;52.526;13.326;2023-05-07T02:55:00;9.50;99.90
15749;DHT22;7976;52.526;13.326;2023-05-07T02:57:28;9.40;99.90
15749;DHT22;7976;52.526;13.326;2023-05-07T02:59:54;9.40;99.90
15749;DHT22;7976;52.526;13.326;2023-05-07T03:02:23;9.40;99.90
15749;DHT22;7976;52.526;13.326;2023-05-07T03:04:50;9.40;99.90
15749;DHT22;7976;52.526;13.326;2023-05-07T03:07:17;9.40;99.90
15749;DHT22;7976;52.526;13.326;2023-05-07T03:09:44;9.40;99.90
15749;DHT22;7976;52.526;13.326;2023-05-07T03:12:11;9.40;99.90
15749;DHT22;7976;52.526;13.326;2023-05-07T03:14:37;9.40;99.90
15749;DHT22;7976;52.526;13.326;2023-05-07T03:17:04;9.40;99.90
15749;DHT22;7976;52.526;13.326;2023-05-07T03:19:32;9.40;99.90
15749;DHT22;7976;52.526;13.326;2023-05-07T03:21:59;9.40;99.90
15749;DHT22;7976;52.526;13.326;2023-05-07T03:24:26;9.40;99.90
15749;DHT22;7976;52.526;13.326;2023-05-07T03:26:53;9.40;99.90
15749;DHT22;7976;52.526;13.326;2023-05-07T03:29:20;9.40;99.90
15749;DHT22;7976;52.526;13.326;2023-05-07T03:31:46;9.40;99.90
15749;DHT22;7976;52.526;13.326;2023-05-07T03:34:13;9.40;99.90
15749;DHT22;7976;52.526;13.326;2023-05-07T03:36:43;9.40;99.90
15749;DHT22;7976;52.526;13.326;2023-05-07T03:39:11;9.40;99.90
15749;DHT22;7976;52.526;13.326;2023-05-07T03:41:40;9.40;99.90
15749;DHT22;7976;52.526;13.326;2023-05-07T03:44:07;9.40;99.90
15749;DHT22;7976;52.526;13.326;2023-05-07T03:46:34;9.30;99.90
15749;DHT22;7976;52.526;13.326;2023-05-07T03:49:01;9.40;99.90
15749;DHT22;7976;52.526;13.326;2023-05-07T03:51:30;9.40;99.90
15749;DHT22;7976;52.526;13.326;2023-05-07T03:53:58;9.40;99.90
15749;DHT22;7976;52.526;13.326;2023-05-07T03:56:27;9.40;99.90
15749;DHT22;7976;52.526;13.326;2023-05-07T03:58:56;9.40;99.90
15749;DHT22;7976;52.526;13.326;2023-05-07T04:01:23;9.40;99.90
15749;DHT22;7976;52.526;13.326;2023-05-07T04:03:50;9.30;99.90
15749;DHT22;7976;52.526;13.326;2023-05-07T04:06:17;9.30;99.90
15749;DHT22;7976;52.526;13.326;2023-05-07T04:08:47;9.30;99.90
15749;DHT22;7976;52.526;13.326;2023-05-07T04:11:16;9.30;99.90
15749;DHT22;7976;52.526;13.326;2023-05-07T04:13:43;9.30;99.90
15749;DHT22;7976;52.526;13.326;2023-05-07T04:16:10;9.30;99.90
15749;DHT22;7976;52.526;13.326;2023-05-07T04:18:37;9.30;99.90
15749;DHT22;7976;52.526;13.326;2023-05-07T04:21:04;9.30;99.90
15749;DHT22;7976;52.526;13.326;2023-05-07T04:23:34;9.30;99.90
15749;DHT22;7976;52.526;13.326;2023-05-07T04:26:04;9.30;99.90
15749;DHT22;7976;52.526;13.326;2023-05-07T04:28:40;9.30;99.90
15749;DHT22;7976;52.526;13.326;2023-05-07T04:31:07;9.30;99.90
15749;DHT22;7976;52.526;13.326;2023-05-07T04:33:36;9.30;99.90
15749;DHT22;7976;52.526;13.326;2023-05-07T04:36:04;9.30;99.90
15749;DHT22;7976;52.526;13.326;2023-05-07T04:38:37;9.30;99.90
15749;DHT22;7976;52.526;13.326;2023-05-07T04:41:05;9.30;99.90
15749;DHT22;7976;52.526;13.326;2023-05-07T04:43:41;9.40;99.90
15749;DHT22;7976;52.526;13.326;2023-05-07T04:46:11;9.40;99.90
15749;DHT22;7976;52.526;13.326;2023-05-07T04:48:38;9.40;99.90
15749;DHT22;7976;52.526;13.326;2023-05-07T04:51:06;9.40;99.90
15749;DHT22;7976;52.526;13.326;2023-05-07T04:53:33;9.50;99.90
15749;DHT22;7976;52.526;13.326;2023-05-07T04:56:00;9.50;99.90
15749;DHT22;7976;52.526;13.326;2023-05-07T04:58:33;9.50;99.90
15749;DHT22;7976;52.526;13.326;2023-05-07T05:01:01;9.50;99.90
15749;DHT22;7976;52.526;13.326;2023-05-07T05:03:28;9.60;99.90
15749;DHT22;7976;52.526;13.326;2023-05-07T05:05:55;9.60;99.90
15749;DHT22;7976;52.526;13.326;2023-05-07T05:08:25;9.60;99.90
15749;DHT22;7976;52.526;13.326;2023-05-07T05:10:52;9.60;99.90
15749;DHT22;7976;52.526;13.326;2023-05-07T05:13:19;9.60;99.90
15749;DHT22;7976;52.526;13.326;2023-05-07T05:15:46;9.60;99.90
15749;DHT22;7976;52.526;13.326;2023-05-07T05:18:15;9.60;99.90
15749;DHT22;7976;52.526;13.326;2023-05-07T05:20:42;9.60;99.90
15749;DHT22;7976;52.526;13.326;2023-05-07T05:23:10;9.70;99.90
15749;DHT22;7976;52.526;13.326;2023-05-07T05:25:37;9.70;99.90
15749;DHT22;7976;52.526;13.326;2023-05-07T05:28:04;9.80;99.90
15749;DHT22;7976;52.526;13.326;2023-05-07T05:30:33;9.90;99.90
15749;DHT22;7976;52.526;13.326;2023-05-07T05:33:01;9.90;99.90
15749;DHT22;7976;52.526;13.326;2023-05-07T05:35:29;9.90;99.90
15749;DHT22;7976;52.526;13.326;2023-05-07T05:37:58;9.90;99.90
15749;DHT22;7976;52.526;13.326;2023-05-07T05:40:25;9.90;99.90
15749;DHT22;7976;52.526;13.326;2023-05-07T05:42:51;9.90;99.90
15749;DHT22;7976;52.526;13.326;2023-05-07T05:45:18;9.90;99.90
15749;DHT22;7976;52.526;13.326;2023-05-07T05:47:45;9.90;99.90
15749;DHT22;7976;52.526;13.326;2023-05-07T05:50:12;9.90;99.90
15749;DHT22;7976;52.526;13.326;2023-05-07T05:52:41;10.00;99.90
15749;DHT22;7976;52.526;13.326;2023-05-07T05:55:08;10.10;99.90
15749;DHT22;7976;52.526;13.326;2023-05-07T05:57:37;10.10;99.90
15749;DHT22;7976;52.526;13.326;2023-05-07T06:00:05;10.20;99.90
15749;DHT22;7976;52.526;13.326;2023-05-07T06:02:44;10.20;99.90
15749;DHT22;7976;52.526;13.326;2023-05-07T06:05:14;10.30;99.90
15749;DHT22;7976;52.526;13.326;2023-05-07T06:07:43;10.40;99.90
15749;DHT22;7976;52.526;13.326;2023-05-07T06:10:10;10.50;99.90
15749;DHT22;7976;52.526;13.326;2023-05-07T06:12:37;10.50;99.90
15749;DHT22;7976;52.526;13.326;2023-05-07T06:15:05;10.50;99.90
15749;DHT22;7976;52.526;13.326;2023-05-07T06:17:34;10.50;99.90
15749;DHT22;7976;52.526;13.326;2023-05-07T06:20:01;10.50;99.90
15749;DHT22;7976;52.526;13.326;2023-05-07T06:22:28;10.60;99.90
15749;DHT22;7976;52.526;13.326;2023-05-07T06:24:56;10.60;99.90
15749;DHT22;7976;52.526;13.326;2023-05-07T06:27:24;10.70;99.90
15749;DHT22;7976;52.526;13.326;2023-05-07T06:29:52;10.60;99.90
15749;DHT22;7976;52.526;13.326;2023-05-07T06:32:19;10.70;99.90
15749;DHT22;7976;52.526;13.326;2023-05-07T06:34:48;10.70;99.90
15749;DHT22;7976;52.526;13.326;2023-05-07T06:37:18;10.80;99.90
15749;DHT22;7976;52.526;13.326;2023-05-07T06:39:54;10.80;99.90
15749;DHT22;7976;52.526;13.326;2023-05-07T06:42:23;10.80;99.90
15749;DHT22;7976;52.526;13.326;2023-05-07T06:44:52;11.00;99.90
15749;DHT22;7976;52.526;13.326;2023-05-07T06:47:19;11.00;99.90
15749;DHT22;7976;52.526;13.326;2023-05-07T06:49:50;11.10;99.90
15749;DHT22;7976;52.526;13.326;2023-05-07T06:52:19;11.10;99.90
15749;DHT22;7976;52.526;13.326;2023-05-07T06:54:48;11.20;99.90
15749;DHT22;7976;52.526;13.326;2023-05-07T06:57:17;11.20;99.90
15749;DHT22;7976;52.526;13.326;2023-05-07T06:59:45;11.30;99.90
15749;DHT22;7976;52.526;13.326;2023-05-07T07:02:12;11.30;99.90
15749;DHT22;7976;52.526;13.326;2023-05-07T07:04:39;11.40;99.90
15749;DHT22;7976;52.526;13.326;2023-05-07T07:07:09;11.40;99.90
15749;DHT22;7976;52.526;13.326;2023-05-07T07:09:36;11.40;99.90
15749;DHT22;7976;52.526;13.326;2023-05-07T07:12:05;11.30;99.90
15749;DHT22;7976;52.526;13.326;2023-05-07T07:14:33;11.30;99.90
15749;DHT22;7976;52.526;13.326;2023-05-07T07:17:02;11.30;99.90
15749;DHT22;7976;52.526;13.326;2023-05-07T07:19:30;11.20;99.90
15749;DHT22;7976;52.526;13.326;2023-05-07T07:21:58;11.20;99.90
15749;DHT22;7976;52.526;13.326;2023-05-07T07:24:25;11.10;99.90
15749;DHT22;7976;52.526;13.326;2023-05-07T07:26:56;11.20;99.90
15749;DHT22;7976;52.526;13.326;2023-05-07T07:29:25;11.30;99.90
15749;DHT22;7976;52.526;13.326;2023-05-07T07:31:52;11.50;99.90
15749;DHT22;7976;52.526;13.326;2023-05-07T07:34:21;11.70;99.90
15749;DHT22;7976;52.526;13.326;2023-05-07T07:36:48;11.70;99.90
15749;DHT22;7976;52.526;13.326;2023-05-07T07:39:17;11.80;99.90
15749;DHT22;7976;52.526;13.326;2023-05-07T07:41:46;11.90;99.90
15749;DHT22;7976;52.526;13.326;2023-05-07T07:44:14;12.00;99.90
15749;DHT22;7976;52.526;13.326;2023-05-07T07:46:41;12.20;99.90
15749;DHT22;7976;52.526;13.326;2023-05-07T07:49:08;12.20;99.90
15749;DHT22;7976;52.526;13.326;2023-05-07T07:51:36;12.30;99.90
15749;DHT22;7976;52.526;13.326;2023-05-07T07:54:03;12.50;99.90
15749;DHT22;7976;52.526;13.326;2023-05-07T07:56:32;12.70;99.90
15749;DHT22;7976;52.526;13.326;2023-05-07T07:59:00;12.90;99.90
15749;DHT22;7976;52.526;13.326;2023-05-07T08:01:28;12.90;99.90
15749;DHT22;7976;52.526;13.326;2023-05-07T08:03:56;13.00;99.90
15749;DHT22;7976;52.526;13.326;2023-05-07T08:06:25;13.10;99.90
15749;DHT22;7976;52.526;13.326;2023-05-07T08:08:54;13.10;99.90
15749;DHT22;7976;52.526;13.326;2023-05-07T08:11:22;13.30;99.90
15749;DHT22;7976;52.526;13.326;2023-05-07T08:13:49;13.30;99.90
15749;DHT22;7976;52.526;13.326;2023-05-07T08:16:16;13.20;99.90
15749;DHT22;7976;52.526;13.326;2023-05-07T08:18:43;13.20;99.90
15749;DHT22;7976;52.526;13.326;2023-05-07T08:21:10;13.20;99.90
15749;DHT22;7976;52.526;13.326;2023-05-07T08:23:38;13.30;99.90
15749;DHT22;7976;52.526;13.326;2023-05-07T08:26:07;13.30;99.90
15749;DHT22;7976;52.526;13.326;2023-05-07T08:28:35;13.30;99.90
15749;DHT22;7976;52.526;13.326;2023-05-07T08:31:02;13.30;99.90
15749;DHT22;7976;52.526;13.326;2023-05-07T08:33:34;13.30;99.90
15749;DHT22;7976;52.526;13.326;2023-05-07T08:36:02;13.50;99.90
15749;DHT22;7976;52.526;13.326;2023-05-07T08:38:30;13.50;99.90
15749;DHT22;7976;52.526;13.326;2023-05-07T08:40:58;13.70;99.90
15749;DHT22;7976;52.526;13.326;2023-05-07T08:43:27;13.70;99.90
15749;DHT22;7976;52.526;13.326;2023-05-07T08:45:55;13.80;99.90
15749;DHT22;7976;52.526;13.326;2023-05-07T08:48:29;13.90;99.90
15749;DHT22;7976;52.526;13.326;2023-05-07T08:51:13;13.90;99.90
15749;DHT22;7976;52.526;13.326;2023-05-07T08:53:43;14.10;99.90
15749;DHT22;7976;52.526;13.326;2023-05-07T08:56:15;14.30;99.90
15749;DHT22;7976;52.526;13.326;2023-05-07T08:58:44;14.50;99.90
15749;DHT22;7976;52.526;13.326;2023-05-07T09:01:14;14.40;99.90
15749;DHT22;7976;52.526;13.326;2023-05-07T09:03:46;14.30;99.90
15749;DHT22;7976;52.526;13.326;2023-05-07T09:06:14;14.30;99.90
15749;DHT22;7976;52.526;13.326;2023-05-07T09:08:49;14.40;99.90
15749;DHT22;7976;52.526;13.326;2023-05-07T09:11:19;14.40;99.90
15749;DHT22;7976;52.526;13.326;2023-05-07T09:13:53;14.60;99.90
15749;DHT22;7976;52.526;13.326;2023-05-07T09:16:22;14.70;99.90
15749;DHT22;7976;52.526;13.326;2023-05-07T09:18:51;14.80;99.90
15749;DHT22;7976;52.526;13.326;2023-05-07T09:21:21;14.90;99.90
15749;DHT22;7976;52.526;13.326;2023-05-07T09:23:52;15.00;99.90
15749;DHT22;7976;52.526;13.326;2023-05-07T09:26:24;15.00;99.90
15749;DHT22;7976;52.526;13.326;2023-05-07T09:28:54;14.80;99.90
15749;DHT22;7976;52.526;13.326;2023-05-07T09:31:21;14.60;99.90
15749;DHT22;7976;52.526;13.326;2023-05-07T09:33:52;14.50;99.90
15749;DHT22;7976;52.526;13.326;2023-05-07T09:36:22;14.50;99.90
15749;DHT22;7976;52.526;13.326;2023-05-07T09:38:49;14.50;99.90
15749;DHT22;7976;52.526;13.326;2023-05-07T09:41:17;14.40;99.90
15749;DHT22;7976;52.526;13.326;2023-05-07T09:43:56;14.40;99.90
15749;DHT22;7976;52.526;13.326;2023-05-07T09:46:30;14.70;99.90
15749;DHT22;7976;52.526;13.326;2023-05-07T09:49:07;14.80;99.90
15749;DHT22;7976;52.526;13.326;2023-05-07T09:51:45;14.80;99.90
15749;DHT22;7976;52.526;13.326;2023-05-07T09:54:16;14.70;99.90
15749;DHT22;7976;52.526;13.326;2023-05-07T09:56:48;14.50;99.90
15749;DHT22;7976;52.526;13.326;2023-05-07T09:59:18;14.50;99.90
15749;DHT22;7976;52.526;13.326;2023-05-07T10:01:49;14.50;99.90
15749;DHT22;7976;52.526;13.326;2023-05-07T10:04:17;14.50;99.90
15749;DHT22;7976;52.526;13.326;2023-05-07T10:06:46;14.50;99.90
15749;DHT22;7976;52.526;13.326;2023-05-07T10:09:14;14.70;99.90
15749;DHT22;7976;52.526;13.326;2023-05-07T10:11:42;14.60;99.90
15749;DHT22;7976;52.526;13.326;2023-05-07T10:14:10;14.60;99.90
15749;DHT22;7976;52.526;13.326;2023-05-07T10:16:43;14.60;99.90
15749;DHT22;7976;52.526;13.326;2023-05-07T10:19:15;14.80;99.90
15749;DHT22;7976;52.526;13.326;2023-05-07T10:21:51;14.90;99.90
15749;DHT22;7976;52.526;13.326;2023-05-07T10:24:26;15.20;99.90
15749;DHT22;7976;52.526;13.326;2023-05-07T10:26:59;15.50;99.90
15749;DHT22;7976;52.526;13.326;2023-05-07T10:29:35;15.50;99.90
15749;DHT22;7976;52.526;13.326;2023-05-07T10:32:25;15.40;99.90
15749;DHT22;7976;52.526;13.326;2023-05-07T10:35:03;15.10;99.90
15749;DHT22;7976;52.526;13.326;2023-05-07T10:37:35;15.00;99.90
15749;DHT22;7976;52.526;13.326;2023-05-07T10:40:04;15.00;99.90
15749;DHT22;7976;52.526;13.326;2023-05-07T10:42:33;15.00;99.90
15749;DHT22;7976;52.526;13.326;2023-05-07T10:45:11;15.10;99.90
15749;DHT22;7976;52.526;13.326;2023-05-07T10:48:12;15.50;99.90
15749;DHT22;7976;52.526;13.326;2023-05-07T10:50:42;15.90;99.90
15749;DHT22;7976;52.526;13.326;2023-05-07T10:53:22;16.20;99.90
15749;DHT22;7976;52.526;13.326;2023-05-07T10:56:23;16.10;99.90
15749;DHT22;7976;52.526;13.326;2023-05-07T10:59:31;16.00;99.90
15749;DHT22;7976;52.526;13.326;2023-05-07T11:02:13;15.90;99.90
15749;DHT22;7976;52.526;13.326;2023-05-07T11:05:19;15.90;99.90
15749;DHT22;7976;52.526;13.326;2023-05-07T11:07:54;15.80;99.90
15749;DHT22;7976;52.526;13.326;2023-05-07T11:10:48;15.50;99.90
15749;DHT22;7976;52.526;13.326;2023-05-07T11:13:43;15.40;99.90
15749;DHT22;7976;52.526;13.326;2023-05-07T11:16:20;15.60;99.90
15749;DHT22;7976;52.526;13.326;2023-05-07T11:18:53;15.60;99.90
15749;DHT22;7976;52.526;13.326;2023-05-07T11:21:36;15.70;99.90
15749;DHT22;7976;52.526;13.326;2023-05-07T11:24:25;15.50;99.90
15749;DHT22;7976;52.526;13.326;2023-05-07T11:26:57;15.40;99.90
15749;DHT22;7976;52.526;13.326;2023-05-07T11:29:26;15.50;99.90
15749;DHT22;7976;52.526;13.326;2023-05-07T11:31:59;15.50;99.90
15749;DHT22;7976;52.526;13.326;2023-05-07T11:34:30;15.40;99.90
15749;DHT22;7976;52.526;13.326;2023-05-07T11:37:00;15.50;99.90
15749;DHT22;7976;52.526;13.326;2023-05-07T11:39:39;15.70;99.90
15749;DHT22;7976;52.526;13.326;2023-05-07T11:42:06;15.60;99.90
15749;DHT22;7976;52.526;13.326;2023-05-07T11:44:41;15.50;99.90
15749;DHT22;7976;52.526;13.326;2023-05-07T11:47:10;15.40;99.90
15749;DHT22;7976;52.526;13.326;2023-05-07T11:49:37;15.50;99.90
15749;DHT22;7976;52.526;13.326;2023-05-07T11:52:05;15.70;99.90
15749;DHT22;7976;52.526;13.326;2023-05-07T11:54:35;15.70;99.90
15749;DHT22;7976;52.526;13.326;2023-05-07T11:57:03;15.60;99.90
15749;DHT22;7976;52.526;13.326;2023-05-07T11:59:38;15.90;99.90
15749;DHT22;7976;52.526;13.326;2023-05-07T12:02:06;16.40;99.90
15749;DHT22;7976;52.526;13.326;2023-05-07T12:04:33;16.60;99.90
15749;DHT22;7976;52.526;13.326;2023-05-07T12:07:00;16.50;99.90
15749;DHT22;7976;52.526;13.326;2023-05-07T12:09:28;16.20;99.90
15749;DHT22;7976;52.526;13.326;2023-05-07T12:11:55;16.10;99.90
15749;DHT22;7976;52.526;13.326;2023-05-07T12:14:22;16.00;99.90
15749;DHT22;7976;52.526;13.326;2023-05-07T12:16:53;15.90;99.90
15749;DHT22;7976;52.526;13.326;2023-05-07T12:19:20;15.80;99.90
15749;DHT22;7976;52.526;13.326;2023-05-07T12:21:48;15.70;99.90
15749;DHT22;7976;52.526;13.326;2023-05-07T12:24:15;15.70;99.90
15749;DHT22;7976;52.526;13.326;2023-05-07T12:26:43;15.90;99.90
15749;DHT22;7976;52.526;13.326;2023-05-07T12:29:10;16.00;99.90
15749;DHT22;7976;52.526;13.326;2023-05-07T12:31:40;16.10;99.90
15749;DHT22;7976;52.526;13.326;2023-05-07T12:34:07;16.30;99.90
15749;DHT22;7976;52.526;13.326;2023-05-07T12:36:37;16.20;99.90
15749;DHT22;7976;52.526;13.326;2023-05-07T12:39:04;16.20;99.90
15749;DHT22;7976;52.526;13.326;2023-05-07T12:41:36;16.20;99.90
15749;DHT22;7976;52.526;13.326;2023-05-07T12:44:22;16.20;99.90
15749;DHT22;7976;52.526;13.326;2023-05-07T12:46:50;16.30;99.90
15749;DHT22;7976;52.526;13.326;2023-05-07T12:49:17;16.20;99.90
15749;DHT22;7976;52.526;13.326;2023-05-07T12:51:46;15.90;99.90
15749;DHT22;7976;52.526;13.326;2023-05-07T12:54:14;15.70;99.90
15749;DHT22;7976;52.526;13.326;2023-05-07T12:57:00;15.60;99.90
15749;DHT22;7976;52.526;13.326;2023-05-07T12:59:34;15.60;99.90
15749;DHT22;7976;52.526;13.326;2023-05-07T13:02:03;15.80;99.90
15749;DHT22;7976;52.526;13.326;2023-05-07T13:04:30;15.90;99.90
15749;DHT22;7976;52.526;13.326;2023-05-07T13:06:57;16.20;99.90
15749;DHT22;7976;52.526;13.326;2023-05-07T13:09:24;16.20;99.90
15749;DHT22;7976;52.526;13.326;2023-05-07T13:11:52;16.30;99.90
15749;DHT22;7976;52.526;13.326;2023-05-07T13:14:19;16.30;99.90
15749;DHT22;7976;52.526;13.326;2023-05-07T13:16:48;16.40;99.90
15749;DHT22;7976;52.526;13.326;2023-05-07T13:19:14;16.50;99.90
15749;DHT22;7976;52.526;13.326;2023-05-07T13:21:41;16.50;99.90
15749;DHT22;7976;52.526;13.326;2023-05-07T13:24:08;16.50;99.90
15749;DHT22;7976;52.526;13.326;2023-05-07T13:26:35;16.40;99.90
15749;DHT22;7976;52.526;13.326;2023-05-07T13:29:02;16.40;99.90
15749;DHT22;7976;52.526;13.326;2023-05-07T13:31:28;16.50;99.90
15749;DHT22;7976;52.526;13.326;2023-05-07T13:33:57;16.50;99.90
15749;DHT22;7976;52.526;13.326;2023-05-07T13:36:23;16.70;99.90
15749;DHT22;7976;52.526;13.326;2023-05-07T13:38:50;16.80;99.90
15749;DHT22;7976;52.526;13.326;2023-05-07T13:41:17;16.90;99.90
15749;DHT22;7976;52.526;13.326;2023-05-07T13:43:44;17.00;99.90
15749;DHT22;7976;52.526;13.326;2023-05-07T13:46:11;17.20;99.90
15749;DHT22;7976;52.526;13.326;2023-05-07T13:48:38;17.50;99.90
15749;DHT22;7976;52.526;13.326;2023-05-07T13:51:06;17.70;99.90
15749;DHT22;7976;52.526;13.326;2023-05-07T13:53:33;17.60;99.90
15749;DHT22;7976;52.526;13.326;2023-05-07T13:56:03;17.50;99.90
15749;DHT22;7976;52.526;13.326;2023-05-07T13:58:30;17.40;99.90
15749;DHT22;7976;52.526;13.326;2023-05-07T14:01:01;17.20;99.90
15749;DHT22;7976;52.526;13.326;2023-05-07T14:03:28;17.20;99.90
15749;DHT22;7976;52.526;13.326;2023-05-07T14:05:57;17.30;99.90
15749;DHT22;7976;52.526;13.326;2023-05-07T14:08:30;17.30;99.90
15749;DHT22;7976;52.526;13.326;2023-05-07T14:10:57;17.10;99.90
15749;DHT22;7976;52.526;13.326;2023-05-07T14:13:25;17.00;99.90
15749;DHT22;7976;52.526;13.326;2023-05-07T14:15:52;16.90;99.90
15749;DHT22;7976;52.526;13.326;2023-05-07T14:18:19;16.90;99.90
15749;DHT22;7976;52.526;13.326;2023-05-07T14:20:46;16.80;99.90
15749;DHT22;7976;52.526;13.326;2023-05-07T14:23:14;16.80;99.90
15749;DHT22;7976;52.526;13.326;2023-05-07T14:25:44;16.80;99.90
15749;DHT22;7976;52.526;13.326;2023-05-07T14:28:13;16.80;99.90
15749;DHT22;7976;52.526;13.326;2023-05-07T14:30:40;16.60;99.90
15749;DHT22;7976;52.526;13.326;2023-05-07T14:33:06;16.50;99.90
15749;DHT22;7976;52.526;13.326;2023-05-07T14:35:33;16.30;99.90
15749;DHT22;7976;52.526;13.326;2023-05-07T14:38:00;16.20;99.90
15749;DHT22;7976;52.526;13.326;2023-05-07T14:40:27;16.20;99.90
15749;DHT22;7976;52.526;13.326;2023-05-07T14:42:55;16.20;99.90
15749;DHT22;7976;52.526;13.326;2023-05-07T14:45:23;16.20;99.90
15749;DHT22;7976;52.526;13.326;2023-05-07T14:47:50;16.10;99.90
15749;DHT22;7976;52.526;13.326;2023-05-07T14:50:17;16.00;99.90
15749;DHT22;7976;52.526;13.326;2023-05-07T14:52:44;16.00;99.90
15749;DHT22;7976;52.526;13.326;2023-05-07T14:55:11;15.90;99.90
15749;DHT22;7976;52.526;13.326;2023-05-07T14:57:38;16.00;99.90
15749;DHT22;7976;52.526;13.326;2023-05-07T15:00:08;16.10;99.90
15749;DHT22;7976;52.526;13.326;2023-05-07T15:02:36;16.10;99.90
15749;DHT22;7976;52.526;13.326;2023-05-07T15:05:04;16.10;99.90
15749;DHT22;7976;52.526;13.326;2023-05-07T15:07:31;16.10;99.90
15749;DHT22;7976;52.526;13.326;2023-05-07T15:09:59;16.10;99.90
15749;DHT22;7976;52.526;13.326;2023-05-07T15:12:26;16.00;99.90
15749;DHT22;7976;52.526;13.326;2023-05-07T15:14:53;15.90;99.90
15749;DHT22;7976;52.526;13.326;2023-05-07T15:17:21;16.00;99.90
15749;DHT22;7976;52.526;13.326;2023-05-07T15:19:48;16.10;99.90
15749;DHT22;7976;52.526;13.326;2023-05-07T15:22:15;16.30;99.90
15749;DHT22;7976;52.526;13.326;2023-05-07T15:24:41;16.50;99.90
15749;DHT22;7976;52.526;13.326;2023-05-07T15:27:09;16.70;99.90
15749;DHT22;7976;52.526;13.326;2023-05-07T15:29:36;17.00;99.90
15749;DHT22;7976;52.526;13.326;2023-05-07T15:32:03;17.20;99.90
15749;DHT22;7976;52.526;13.326;2023-05-07T15:34:43;17.30;99.90
15749;DHT22;7976;52.526;13.326;2023-05-07T15:37:11;17.20;99.90
15749;DHT22;7976;52.526;13.326;2023-05-07T15:39:38;17.10;99.90
15749;DHT22;7976;52.526;13.326;2023-05-07T15:42:05;16.90;99.90
15749;DHT22;7976;52.526;13.326;2023-05-07T15:44:31;16.60;99.90
15749;DHT22;7976;52.526;13.326;2023-05-07T15:46:59;16.50;99.90
15749;DHT22;7976;52.526;13.326;2023-05-07T15:49:26;16.40;99.90
15749;DHT22;7976;52.526;13.326;2023-05-07T15:51:54;16.40;99.90